sensor_id;sensor_type;location;lat;lon;timestamp;pressure;altitude;pressure_sealevel;temperature;humidity
42247;BME280;27913;42.722;23.268;2023-03-21T00:00:36;94869.06;;;10.98;60.47
42247;BME280;27913;42.722;23.268;2023-03-21T00:05:43;94578.47;;;9.17;60.25
42247;BME280;27913;42.722;23.268;2023-03-21T00:08:14;94617.56;;;9.34;60.06
42247;BME280;27913;42.722;23.268;2023-03-21T00:10:40;94717.38;;;10.13;60.06
42247;BME280;27913;42.722;23.268;2023-03-21T00:13:06;94676.72;;;9.80;60.31
42247;BME280;27913;42.722;23.268;2023-03-21T00:15:32;94575.97;;;9.30;59.97
42247;BME280;27913;42.722;23.268;2023-03-21T00:17:57;94696.47;;;9.98;60.38
42247;BME280;27913;42.722;23.268;2023-03-21T00:20:31;94841.31;;;10.96;60.15
42247;BME280;27913;42.722;23.268;2023-03-21T00:23:02;94754.53;;;10.38;60.47
42247;BME280;27913;42.722;23.268;2023-03-21T00:25:28;94574.59;;;9.13;60.63
42247;BME280;27913;42.722;23.268;2023-03-21T00:27:56;94582.84;;;9.10;61.16
42247;BME280;27913;42.722;23.268;2023-03-21T00:30:21;94884.81;;;10.92;61.44
42247;BME280;27913;42.722;23.268;2023-03-21T00:32:48;94593.22;;;9.18;61.06
42247;BME280;27913;42.722;23.268;2023-03-21T00:35:14;94628.06;;;9.34;61.15
42247;BME280;27913;42.722;23.268;2023-03-21T00:37:40;94599.38;;;9.10;61.23
42247;BME280;27913;42.722;23.268;2023-03-21T00:40:06;94654.84;;;9.51;61.15
42247;BME280;27913;42.722;23.268;2023-03-21T00:42:35;94667.44;;;9.56;61.13
42247;BME280;27913;42.722;23.268;2023-03-21T00:45:01;94598.34;;;9.04;60.97
42247;BME280;27913;42.722;23.268;2023-03-21T00:47:27;94675.50;;;9.54;61.18
42247;BME280;27913;42.722;23.268;2023-03-21T00:49:53;94595.53;;;9.06;60.83
42247;BME280;27913;42.722;23.268;2023-03-21T00:52:18;94683.28;;;9.69;60.93
42247;BME280;27913;42.722;23.268;2023-03-21T00:54:44;94617.44;;;9.20;61.16
42247;BME280;27913;42.722;23.268;2023-03-21T00:57:10;94694.03;;;9.74;60.99
42247;BME280;27913;42.722;23.268;2023-03-21T00:59:35;94648.63;;;9.52;61.35
42247;BME280;27913;42.722;23.268;2023-03-21T01:02:01;94833.59;;;10.59;61.30
42247;BME280;27913;42.722;23.268;2023-03-21T01:04:32;94682.91;;;9.72;61.33
42247;BME280;27913;42.722;23.268;2023-03-21T01:06:58;94654.41;;;9.47;61.14
42247;BME280;27913;42.722;23.268;2023-03-21T01:09:24;94738.63;;;10.18;61.64
42247;BME280;27913;42.722;23.268;2023-03-21T01:11:51;94742.81;;;10.12;61.61
42247;BME280;27913;42.722;23.268;2023-03-21T01:14:18;94617.00;;;9.16;62.03
42247;BME280;27913;42.722;23.268;2023-03-21T01:16:44;94628.63;;;9.07;62.58
42247;BME280;27913;42.722;23.268;2023-03-21T01:19:12;94568.72;;;8.52;63.16
42247;BME280;27913;42.722;23.268;2023-03-21T01:21:38;94553.53;;;8.62;62.91
42247;BME280;27913;42.722;23.268;2023-03-21T01:24:05;94697.09;;;9.56;62.71
42247;BME280;27913;42.722;23.268;2023-03-21T01:26:30;94605.56;;;9.02;62.42
42247;BME280;27913;42.722;23.268;2023-03-21T01:28:56;94564.59;;;8.79;62.74
42247;BME280;27913;42.722;23.268;2023-03-21T01:31:22;94528.41;;;8.53;62.74
42247;BME280;27913;42.722;23.268;2023-03-21T01:33:47;94631.81;;;9.24;62.85
42247;BME280;27913;42.722;23.268;2023-03-21T01:36:19;94591.38;;;8.97;62.57
42247;BME280;27913;42.722;23.268;2023-03-21T01:38:46;94578.53;;;8.80;62.76
42247;BME280;27913;42.722;23.268;2023-03-21T01:41:28;94559.81;;;8.83;62.47
42247;BME280;27913;42.722;23.268;2023-03-21T01:43:54;94654.06;;;9.28;62.73
42247;BME280;27913;42.722;23.268;2023-03-21T01:46:41;94685.13;;;9.47;63.07
42247;BME280;27913;42.722;23.268;2023-03-21T01:49:18;94814.31;;;10.30;62.60
42247;BME280;27913;42.722;23.268;2023-03-21T01:52:04;94618.31;;;9.05;62.74
42247;BME280;27913;42.722;23.268;2023-03-21T01:54:34;94552.75;;;8.46;63.34
42247;BME280;27913;42.722;23.268;2023-03-21T01:57:06;94559.66;;;8.54;63.16
42247;BME280;27913;42.722;23.268;2023-03-21T01:59:38;94831.19;;;10.42;63.04
42247;BME280;27913;42.722;23.268;2023-03-21T02:02:08;94735.63;;;9.71;63.11
42247;BME280;27913;42.722;23.268;2023-03-21T02:04:36;94625.63;;;9.10;63.02
42247;BME280;27913;42.722;23.268;2023-03-21T02:07:10;94558.28;;;8.74;62.97
42247;BME280;27913;42.722;23.268;2023-03-21T02:09:38;94589.47;;;8.84;62.77
42247;BME280;27913;42.722;23.268;2023-03-21T02:12:06;94666.22;;;9.14;63.31
42247;BME280;27913;42.722;23.268;2023-03-21T02:14:35;94735.94;;;9.61;63.45
42247;BME280;27913;42.722;23.268;2023-03-21T02:17:40;94822.63;;;10.33;63.14
42247;BME280;27913;42.722;23.268;2023-03-21T02:31:21;94652.66;;;9.11;63.41
42247;BME280;27913;42.722;23.268;2023-03-21T02:42:39;94824.59;;;10.02;64.06
42247;BME280;27913;42.722;23.268;2023-03-21T02:45:07;94718.56;;;9.38;63.84
42247;BME280;27913;42.722;23.268;2023-03-21T02:47:38;94570.28;;;8.46;63.96
42247;BME280;27913;42.722;23.268;2023-03-21T02:50:11;94829.53;;;10.12;64.24
42247;BME280;27913;42.722;23.268;2023-03-21T02:52:41;94645.66;;;8.96;63.84
42247;BME280;27913;42.722;23.268;2023-03-21T02:55:16;94623.00;;;8.88;63.94
42247;BME280;27913;42.722;23.268;2023-03-21T02:57:46;94646.84;;;8.93;63.84
42247;BME280;27913;42.722;23.268;2023-03-21T03:00:19;94568.28;;;8.48;63.88
42247;BME280;27913;42.722;23.268;2023-03-21T03:02:46;94728.22;;;9.37;64.06
42247;BME280;27913;42.722;23.268;2023-03-21T03:05:20;94616.16;;;8.72;64.28
42247;BME280;27913;42.722;23.268;2023-03-21T03:08:02;94653.81;;;8.86;63.91
42247;BME280;27913;42.722;23.268;2023-03-21T03:10:45;94724.00;;;9.36;63.93
42247;BME280;27913;42.722;23.268;2023-03-21T03:18:59;94564.25;;;8.30;64.01
42247;BME280;27913;42.722;23.268;2023-03-21T03:24:10;94662.81;;;8.31;66.31
42247;BME280;27913;42.722;23.268;2023-03-21T03:26:45;94665.53;;;8.08;67.31
42247;BME280;27913;42.722;23.268;2023-03-21T03:29:15;94563.91;;;7.43;68.09
42247;BME280;27913;42.722;23.268;2023-03-21T03:31:47;94546.19;;;7.30;67.91
42247;BME280;27913;42.722;23.268;2023-03-21T03:34:21;94672.22;;;8.26;67.80
42247;BME280;27913;42.722;23.268;2023-03-21T03:36:58;94640.69;;;7.89;67.87
42247;BME280;27913;42.722;23.268;2023-03-21T03:39:39;94529.06;;;7.04;68.41
42247;BME280;27913;42.722;23.268;2023-03-21T03:42:18;94531.78;;;7.10;68.35
42247;BME280;27913;42.722;23.268;2023-03-21T03:44:44;94721.72;;;8.20;68.26
42247;BME280;27913;42.722;23.268;2023-03-21T03:47:40;94635.75;;;7.70;68.41
42247;BME280;27913;42.722;23.268;2023-03-21T03:50:19;94571.38;;;7.31;67.72
42247;BME280;27913;42.722;23.268;2023-03-21T03:52:53;94757.91;;;8.70;67.66
42247;BME280;27913;42.722;23.268;2023-03-21T03:55:22;94533.91;;;7.30;67.17
42247;BME280;27913;42.722;23.268;2023-03-21T03:57:51;94669.94;;;8.07;67.38
42247;BME280;27913;42.722;23.268;2023-03-21T04:00:18;94527.34;;;7.34;66.97
42247;BME280;27913;42.722;23.268;2023-03-21T04:02:45;94578.44;;;7.76;66.63
42247;BME280;27913;42.722;23.268;2023-03-21T04:05:12;94765.75;;;8.86;66.59
42247;BME280;27913;42.722;23.268;2023-03-21T04:07:38;94827.31;;;9.35;66.70
42247;BME280;27913;42.722;23.268;2023-03-21T04:10:03;94832.19;;;9.38;66.45
42247;BME280;27913;42.722;23.268;2023-03-21T04:12:29;94826.59;;;9.41;66.40
42247;BME280;27913;42.722;23.268;2023-03-21T04:14:55;94825.22;;;9.46;66.01
42247;BME280;27913;42.722;23.268;2023-03-21T04:17:20;94824.44;;;9.45;65.79
42247;BME280;27913;42.722;23.268;2023-03-21T04:19:46;94813.09;;;9.45;66.15
42247;BME280;27913;42.722;23.268;2023-03-21T04:22:12;94827.06;;;9.45;66.27
42247;BME280;27913;42.722;23.268;2023-03-21T04:24:38;94830.13;;;9.34;66.95
42247;BME280;27913;42.722;23.268;2023-03-21T04:27:04;94812.41;;;9.36;67.04
42247;BME280;27913;42.722;23.268;2023-03-21T04:29:31;94829.94;;;9.35;66.82
42247;BME280;27913;42.722;23.268;2023-03-21T04:31:56;94824.44;;;9.30;67.20
42247;BME280;27913;42.722;23.268;2023-03-21T04:34:22;94619.28;;;8.00;67.44
42247;BME280;27913;42.722;23.268;2023-03-21T04:36:55;94809.34;;;9.02;68.05
42247;BME280;27913;42.722;23.268;2023-03-21T04:39:21;94758.41;;;8.51;68.32
42247;BME280;27913;42.722;23.268;2023-03-21T04:41:48;94830.06;;;8.97;68.28
42247;BME280;27913;42.722;23.268;2023-03-21T04:44:15;94818.03;;;9.02;67.74
42247;BME280;27913;42.722;23.268;2023-03-21T04:46:41;94826.00;;;9.09;67.11
42247;BME280;27913;42.722;23.268;2023-03-21T04:49:07;94675.00;;;8.24;66.53
42247;BME280;27913;42.722;23.268;2023-03-21T04:51:33;94671.22;;;8.12;66.14
42247;BME280;27913;42.722;23.268;2023-03-21T04:53:59;94824.72;;;9.20;66.02
42247;BME280;27913;42.722;23.268;2023-03-21T04:56:29;94813.34;;;9.13;66.14
42247;BME280;27913;42.722;23.268;2023-03-21T04:58:59;94828.72;;;9.31;66.31
42247;BME280;27913;42.722;23.268;2023-03-21T05:01:26;94764.59;;;8.88;66.27
42247;BME280;27913;42.722;23.268;2023-03-21T05:03:58;94836.03;;;9.36;65.84
42247;BME280;27913;42.722;23.268;2023-03-21T05:06:24;94839.81;;;9.33;65.84
42247;BME280;27913;42.722;23.268;2023-03-21T05:08:50;94835.38;;;9.34;65.95
42247;BME280;27913;42.722;23.268;2023-03-21T05:11:16;94838.66;;;9.36;66.05
42247;BME280;27913;42.722;23.268;2023-03-21T05:13:42;94786.84;;;9.08;65.94
42247;BME280;27913;42.722;23.268;2023-03-21T05:16:07;94685.41;;;8.48;65.66
42247;BME280;27913;42.722;23.268;2023-03-21T05:18:33;94607.97;;;8.00;65.69
42247;BME280;27913;42.722;23.268;2023-03-21T05:21:03;94510.75;;;7.42;66.00
42247;BME280;27913;42.722;23.268;2023-03-21T05:23:32;94729.44;;;8.67;66.59
42247;BME280;27913;42.722;23.268;2023-03-21T05:26:05;94846.25;;;9.30;66.45
42247;BME280;27913;42.722;23.268;2023-03-21T05:28:31;94792.19;;;8.99;67.28
42247;BME280;27913;42.722;23.268;2023-03-21T05:31:02;94701.22;;;8.39;67.95
42247;BME280;27913;42.722;23.268;2023-03-21T05:33:28;94821.50;;;9.03;68.56
42247;BME280;27913;42.722;23.268;2023-03-21T05:35:54;94850.31;;;9.18;68.39
42247;BME280;27913;42.722;23.268;2023-03-21T05:38:19;94683.78;;;8.16;68.24
42247;BME280;27913;42.722;23.268;2023-03-21T05:40:49;94632.09;;;7.80;68.73
42247;BME280;27913;42.722;23.268;2023-03-21T05:43:14;94846.81;;;9.26;69.50
42247;BME280;27913;42.722;23.268;2023-03-21T05:45:40;94572.31;;;7.53;69.81
42247;BME280;27913;42.722;23.268;2023-03-21T05:48:06;94778.50;;;9.04;69.62
42247;BME280;27913;42.722;23.268;2023-03-21T05:50:31;94842.63;;;9.47;69.35
42247;BME280;27913;42.722;23.268;2023-03-21T05:52:57;94660.72;;;8.42;68.41
42247;BME280;27913;42.722;23.268;2023-03-21T05:55:22;94821.19;;;9.65;67.93
42247;BME280;27913;42.722;23.268;2023-03-21T05:57:48;94839.09;;;9.76;67.56
42247;BME280;27913;42.722;23.268;2023-03-21T06:00:14;94821.75;;;9.82;68.49
42247;BME280;27913;42.722;23.268;2023-03-21T06:02:40;94710.09;;;9.21;67.69
42247;BME280;27913;42.722;23.268;2023-03-21T06:05:06;94811.53;;;9.87;67.04
42247;BME280;27913;42.722;23.268;2023-03-21T06:07:32;94703.09;;;9.28;67.12
42247;BME280;27913;42.722;23.268;2023-03-21T06:09:58;94762.38;;;9.59;67.04
42247;BME280;27913;42.722;23.268;2023-03-21T06:12:24;94612.00;;;8.63;66.71
42247;BME280;27913;42.722;23.268;2023-03-21T06:14:49;94540.97;;;8.20;67.29
42247;BME280;27913;42.722;23.268;2023-03-21T06:17:15;94766.25;;;9.63;67.34
42247;BME280;27913;42.722;23.268;2023-03-21T06:19:40;94786.38;;;9.78;67.48
42247;BME280;27913;42.722;23.268;2023-03-21T06:22:06;94812.47;;;10.01;67.44
42247;BME280;27913;42.722;23.268;2023-03-21T06:24:32;94814.47;;;9.99;68.10
42247;BME280;27913;42.722;23.268;2023-03-21T06:26:57;94793.88;;;9.81;67.93
42247;BME280;27913;42.722;23.268;2023-03-21T06:29:23;94805.34;;;9.95;68.32
42247;BME280;27913;42.722;23.268;2023-03-21T06:31:50;94808.78;;;9.96;68.62
42247;BME280;27913;42.722;23.268;2023-03-21T06:34:16;94569.44;;;8.45;68.87
42247;BME280;27913;42.722;23.268;2023-03-21T06:36:41;94755.31;;;9.60;68.49
42247;BME280;27913;42.722;23.268;2023-03-21T06:39:09;94824.84;;;10.08;68.60
42247;BME280;27913;42.722;23.268;2023-03-21T06:41:35;94819.03;;;10.12;68.19
42247;BME280;27913;42.722;23.268;2023-03-21T06:44:01;94806.59;;;9.99;67.56
42247;BME280;27913;42.722;23.268;2023-03-21T06:46:26;94530.31;;;8.22;66.07
42247;BME280;27913;42.722;23.268;2023-03-21T06:48:52;94766.19;;;9.78;65.86
42247;BME280;27913;42.722;23.268;2023-03-21T06:51:18;94541.94;;;8.34;66.36
42247;BME280;27913;42.722;23.268;2023-03-21T06:53:44;94736.47;;;9.56;65.90
42247;BME280;27913;42.722;23.268;2023-03-21T06:56:11;94823.91;;;10.15;65.56
42247;BME280;27913;42.722;23.268;2023-03-21T06:58:36;94764.56;;;9.77;66.03
42247;BME280;27913;42.722;23.268;2023-03-21T07:01:03;94836.75;;;10.25;65.88
42247;BME280;27913;42.722;23.268;2023-03-21T07:03:28;94818.91;;;10.21;65.90
42247;BME280;27913;42.722;23.268;2023-03-21T07:05:54;94811.56;;;10.38;65.85
42247;BME280;27913;42.722;23.268;2023-03-21T07:08:27;94633.06;;;9.28;65.40
42247;BME280;27913;42.722;23.268;2023-03-21T07:10:55;94716.66;;;9.97;63.59
42247;BME280;27913;42.722;23.268;2023-03-21T07:13:22;94830.78;;;10.60;63.43
42247;BME280;27913;42.722;23.268;2023-03-21T07:15:47;94823.06;;;10.59;63.48
42247;BME280;27913;42.722;23.268;2023-03-21T07:18:13;94818.06;;;10.42;62.70
42247;BME280;27913;42.722;23.268;2023-03-21T07:20:39;94771.41;;;10.22;62.50
42247;BME280;27913;42.722;23.268;2023-03-21T07:23:05;94839.34;;;10.69;61.06
42247;BME280;27913;42.722;23.268;2023-03-21T07:25:31;94838.56;;;10.75;60.79
42247;BME280;27913;42.722;23.268;2023-03-21T07:27:57;94658.34;;;9.80;60.67
42247;BME280;27913;42.722;23.268;2023-03-21T07:30:22;94837.47;;;10.98;60.55
42247;BME280;27913;42.722;23.268;2023-03-21T07:32:48;94814.47;;;11.07;60.45
42247;BME280;27913;42.722;23.268;2023-03-21T07:35:15;94739.41;;;10.69;60.04
42247;BME280;27913;42.722;23.268;2023-03-21T07:37:41;94651.13;;;10.24;59.89
42247;BME280;27913;42.722;23.268;2023-03-21T07:40:08;94586.66;;;9.86;59.45
42247;BME280;27913;42.722;23.268;2023-03-21T07:42:40;94827.38;;;11.44;59.58
42247;BME280;27913;42.722;23.268;2023-03-21T07:45:07;94842.84;;;11.54;59.53
42247;BME280;27913;42.722;23.268;2023-03-21T07:47:33;94836.97;;;11.66;59.83
42247;BME280;27913;42.722;23.268;2023-03-21T07:49:59;94796.41;;;11.46;59.82
42247;BME280;27913;42.722;23.268;2023-03-21T07:52:26;94816.72;;;11.66;59.65
42247;BME280;27913;42.722;23.268;2023-03-21T07:54:51;94609.91;;;10.25;59.87
42247;BME280;27913;42.722;23.268;2023-03-21T07:57:17;94834.78;;;11.76;60.39
42247;BME280;27913;42.722;23.268;2023-03-21T07:59:43;94578.94;;;10.13;60.35
42247;BME280;27913;42.722;23.268;2023-03-21T08:02:16;94786.91;;;11.52;60.12
42247;BME280;27913;42.722;23.268;2023-03-21T08:04:42;94822.41;;;11.70;59.56
42247;BME280;27913;42.722;23.268;2023-03-21T08:07:08;94728.47;;;11.21;59.20
42247;BME280;27913;42.722;23.268;2023-03-21T08:09:34;94614.09;;;10.48;58.73
42247;BME280;27913;42.722;23.268;2023-03-21T08:12:00;94530.56;;;10.01;58.71
42247;BME280;27913;42.722;23.268;2023-03-21T08:14:25;94831.00;;;11.99;58.66
42247;BME280;27913;42.722;23.268;2023-03-21T08:16:51;94694.47;;;11.33;58.54
42247;BME280;27913;42.722;23.268;2023-03-21T08:19:17;94509.03;;;10.26;57.86
42247;BME280;27913;42.722;23.268;2023-03-21T08:21:49;94722.91;;;11.58;57.43
42247;BME280;27913;42.722;23.268;2023-03-21T08:24:16;94600.03;;;10.76;56.99
42247;BME280;27913;42.722;23.268;2023-03-21T08:26:41;94829.00;;;12.22;56.43
42247;BME280;27913;42.722;23.268;2023-03-21T08:29:08;94599.00;;;10.70;56.93
42247;BME280;27913;42.722;23.268;2023-03-21T08:31:34;94756.16;;;11.87;57.22
42247;BME280;27913;42.722;23.268;2023-03-21T08:34:00;94815.00;;;12.14;56.63
42247;BME280;27913;42.722;23.268;2023-03-21T08:36:26;94708.91;;;11.58;57.44
42247;BME280;27913;42.722;23.268;2023-03-21T08:38:51;94815.25;;;12.33;57.58
42247;BME280;27913;42.722;23.268;2023-03-21T08:41:21;94778.94;;;12.15;57.05
42247;BME280;27913;42.722;23.268;2023-03-21T08:43:48;94822.13;;;12.41;57.63
42247;BME280;27913;42.722;23.268;2023-03-21T08:46:14;94819.50;;;12.41;57.46
42247;BME280;27913;42.722;23.268;2023-03-21T08:48:40;94810.34;;;12.23;58.33
42247;BME280;27913;42.722;23.268;2023-03-21T08:51:06;94825.38;;;12.36;58.08
42247;BME280;27913;42.722;23.268;2023-03-21T08:53:32;94711.38;;;11.59;58.62
42247;BME280;27913;42.722;23.268;2023-03-21T08:55:57;94819.69;;;12.32;58.20
42247;BME280;27913;42.722;23.268;2023-03-21T08:58:23;94812.78;;;12.25;58.70
42247;BME280;27913;42.722;23.268;2023-03-21T09:00:48;94798.63;;;12.12;59.07
42247;BME280;27913;42.722;23.268;2023-03-21T09:03:15;94794.94;;;12.34;59.27
42247;BME280;27913;42.722;23.268;2023-03-21T09:05:40;94698.22;;;11.87;58.96
42247;BME280;27913;42.722;23.268;2023-03-21T09:08:06;94757.06;;;12.21;58.40
42247;BME280;27913;42.722;23.268;2023-03-21T09:10:32;94804.06;;;12.51;58.49
42247;BME280;27913;42.722;23.268;2023-03-21T09:12:57;94791.91;;;12.50;59.22
42247;BME280;27913;42.722;23.268;2023-03-21T09:15:25;94744.66;;;12.42;58.70
42247;BME280;27913;42.722;23.268;2023-03-21T09:17:53;94678.75;;;12.08;58.73
42247;BME280;27913;42.722;23.268;2023-03-21T09:20:22;94613.31;;;11.71;58.71
42247;BME280;27913;42.722;23.268;2023-03-21T09:22:55;94717.25;;;12.50;58.24
42247;BME280;27913;42.722;23.268;2023-03-21T09:25:21;94775.78;;;12.99;57.07
42247;BME280;27913;42.722;23.268;2023-03-21T09:27:48;94774.16;;;13.05;56.62
42247;BME280;27913;42.722;23.268;2023-03-21T09:30:19;94704.41;;;12.74;56.71
42247;BME280;27913;42.722;23.268;2023-03-21T09:32:45;94781.56;;;13.28;57.01
42247;BME280;27913;42.722;23.268;2023-03-21T09:35:17;94494.41;;;11.54;56.41
42247;BME280;27913;42.722;23.268;2023-03-21T09:37:44;94756.97;;;13.35;56.08
42247;BME280;27913;42.722;23.268;2023-03-21T09:40:22;94564.59;;;12.21;55.94
42247;BME280;27913;42.722;23.268;2023-03-21T09:43:14;94732.00;;;13.31;58.40
42247;BME280;27913;42.722;23.268;2023-03-21T09:45:49;94670.41;;;12.98;57.28
42247;BME280;27913;42.722;23.268;2023-03-21T09:48:34;94753.25;;;13.56;54.77
42247;BME280;27913;42.722;23.268;2023-03-21T09:51:04;94746.13;;;13.50;53.68
42247;BME280;27913;42.722;23.268;2023-03-21T09:53:36;94741.13;;;13.35;53.69
42247;BME280;27913;42.722;23.268;2023-03-21T09:56:04;94739.50;;;13.40;53.87
42247;BME280;27913;42.722;23.268;2023-03-21T09:58:46;94748.16;;;13.48;54.26
42247;BME280;27913;42.722;23.268;2023-03-21T10:01:28;94743.06;;;13.60;53.81
42247;BME280;27913;42.722;23.268;2023-03-21T10:03:59;94735.44;;;13.77;53.58
42247;BME280;27913;42.722;23.268;2023-03-21T10:06:27;94735.78;;;13.87;53.65
42247;BME280;27913;42.722;23.268;2023-03-21T10:09:14;94696.00;;;13.75;53.67
42247;BME280;27913;42.722;23.268;2023-03-21T10:11:47;94654.63;;;13.62;52.73
42247;BME280;27913;42.722;23.268;2023-03-21T10:14:36;94714.47;;;14.08;52.61
42247;BME280;27913;42.722;23.268;2023-03-21T10:20:18;94657.41;;;14.00;49.80
42247;BME280;27913;42.722;23.268;2023-03-21T10:22:47;94717.88;;;14.41;50.14
42247;BME280;27913;42.722;23.268;2023-03-21T10:25:19;94715.69;;;14.31;50.59
42247;BME280;27913;42.722;23.268;2023-03-21T10:27:46;94721.75;;;14.38;50.56
42247;BME280;27913;42.722;23.268;2023-03-21T10:30:35;94717.03;;;14.40;49.80
42247;BME280;27913;42.722;23.268;2023-03-21T10:33:06;94626.91;;;13.97;49.38
42247;BME280;27913;42.722;23.268;2023-03-21T10:35:34;94694.84;;;14.41;48.78
42247;BME280;27913;42.722;23.268;2023-03-21T10:38:03;94644.72;;;14.28;48.85
42247;BME280;27913;42.722;23.268;2023-03-21T10:40:29;94490.47;;;13.33;48.14
42247;BME280;27913;42.722;23.268;2023-03-21T10:42:56;94717.28;;;14.76;47.86
42247;BME280;27913;42.722;23.268;2023-03-21T10:45:38;94719.03;;;14.89;47.72
42247;BME280;27913;42.722;23.268;2023-03-21T10:48:06;94460.75;;;13.38;47.71
42247;BME280;27913;42.722;23.268;2023-03-21T10:50:32;94722.25;;;15.10;46.52
42247;BME280;27913;42.722;23.268;2023-03-21T10:52:58;94729.09;;;15.18;44.71
42247;BME280;27913;42.722;23.268;2023-03-21T10:55:30;94627.06;;;14.78;43.78
42247;BME280;27913;42.722;23.268;2023-03-21T10:58:07;94575.34;;;14.44;43.69
42247;BME280;27913;42.722;23.268;2023-03-21T11:00:39;94632.53;;;14.83;43.88
42247;BME280;27913;42.722;23.268;2023-03-21T11:03:06;94712.84;;;15.45;43.79
42247;BME280;27913;42.722;23.268;2023-03-21T11:05:35;94646.75;;;15.19;43.25
42247;BME280;27913;42.722;23.268;2023-03-21T11:08:10;94559.94;;;14.60;43.01
42247;BME280;27913;42.722;23.268;2023-03-21T11:10:51;94697.66;;;15.52;42.39
42247;BME280;27913;42.722;23.268;2023-03-21T11:13:22;94462.84;;;14.30;42.29
42247;BME280;27913;42.722;23.268;2023-03-21T11:15:56;94690.81;;;15.75;42.00
42247;BME280;27913;42.722;23.268;2023-03-21T11:18:25;94673.28;;;15.74;41.66
42247;BME280;27913;42.722;23.268;2023-03-21T11:21:02;94675.97;;;15.86;41.05
42247;BME280;27913;42.722;23.268;2023-03-21T11:23:30;94579.72;;;15.19;41.19
42247;BME280;27913;42.722;23.268;2023-03-21T11:25:59;94511.25;;;14.92;41.79
42247;BME280;27913;42.722;23.268;2023-03-21T11:28:32;94458.69;;;14.65;41.44
42247;BME280;27913;42.722;23.268;2023-03-21T11:31:02;94668.50;;;16.07;43.25
42247;BME280;27913;42.722;23.268;2023-03-21T11:33:41;94629.44;;;16.02;45.04
42247;BME280;27913;42.722;23.268;2023-03-21T11:38:47;94642.09;;;16.12;41.16
42247;BME280;27913;42.722;23.268;2023-03-21T11:41:31;94648.91;;;16.20;40.79
42247;BME280;27913;42.722;23.268;2023-03-21T11:43:58;94542.72;;;15.55;40.94
42247;BME280;27913;42.722;23.268;2023-03-21T11:46:27;94655.13;;;16.26;41.04
42247;BME280;27913;42.722;23.268;2023-03-21T11:48:53;94588.69;;;15.97;40.50
42247;BME280;27913;42.722;23.268;2023-03-21T11:51:37;94593.19;;;15.96;41.59
42247;BME280;27913;42.722;23.268;2023-03-21T11:54:15;94572.22;;;15.94;40.52
42247;BME280;27913;42.722;23.268;2023-03-21T11:57:37;94576.16;;;16.04;39.67
42247;BME280;27913;42.722;23.268;2023-03-21T12:00:02;94635.06;;;16.42;38.77
42247;BME280;27913;42.722;23.268;2023-03-21T12:05:28;94624.69;;;16.40;40.37
42247;BME280;27913;42.722;23.268;2023-03-21T12:08:22;94501.22;;;15.49;40.74
42247;BME280;27913;42.722;23.268;2023-03-21T12:11:16;94607.75;;;16.17;40.51
42247;BME280;27913;42.722;23.268;2023-03-21T12:14:10;94608.53;;;16.30;39.92
42247;BME280;27913;42.722;23.268;2023-03-21T12:24:56;94544.53;;;15.78;39.55
42247;BME280;27913;42.722;23.268;2023-03-21T12:30:17;94593.66;;;16.17;38.20
42247;BME280;27913;42.722;23.268;2023-03-21T12:33:11;94591.72;;;16.12;38.53
42247;BME280;27913;42.722;23.268;2023-03-21T12:38:39;94580.84;;;16.26;36.63
42247;BME280;27913;42.722;23.268;2023-03-21T12:41:11;94552.16;;;16.11;36.37
42247;BME280;27913;42.722;23.268;2023-03-21T12:44:02;94368.44;;;15.09;36.58
42247;BME280;27913;42.722;23.268;2023-03-21T12:49:24;94571.25;;;16.37;37.32
42247;BME280;27913;42.722;23.268;2023-03-21T12:51:57;94583.72;;;16.36;37.56
42247;BME280;27913;42.722;23.268;2023-03-21T12:54:38;94524.50;;;16.06;38.05
42247;BME280;27913;42.722;23.268;2023-03-21T13:02:21;94572.63;;;16.39;38.05
42247;BME280;27913;42.722;23.268;2023-03-21T13:04:59;94529.75;;;16.18;38.19
42247;BME280;27913;42.722;23.268;2023-03-21T13:07:33;94454.31;;;15.73;36.84
42247;BME280;27913;42.722;23.268;2023-03-21T13:10:00;94566.88;;;16.42;37.18
42247;BME280;27913;42.722;23.268;2023-03-21T13:12:35;94515.94;;;16.16;37.63
42247;BME280;27913;42.722;23.268;2023-03-21T13:15:16;94402.03;;;15.44;37.40
42247;BME280;27913;42.722;23.268;2023-03-21T13:20:43;94561.38;;;16.32;38.04
42247;BME280;27913;42.722;23.268;2023-03-21T13:23:10;94411.72;;;15.51;37.79
42247;BME280;27913;42.722;23.268;2023-03-21T13:25:44;94457.97;;;15.84;38.18
42247;BME280;27913;42.722;23.268;2023-03-21T13:28:30;94550.97;;;16.42;38.26
42247;BME280;27913;42.722;23.268;2023-03-21T13:31:24;94453.16;;;15.81;38.76
42247;BME280;27913;42.722;23.268;2023-03-21T13:33:53;94491.31;;;16.04;38.49
42247;BME280;27913;42.722;23.268;2023-03-21T13:36:27;94533.97;;;16.44;38.46
42247;BME280;27913;42.722;23.268;2023-03-21T13:39:02;94537.78;;;16.48;38.32
42247;BME280;27913;42.722;23.268;2023-03-21T13:41:30;94527.53;;;16.39;38.90
42247;BME280;27913;42.722;23.268;2023-03-21T13:49:00;94520.56;;;16.50;39.23
42247;BME280;27913;42.722;23.268;2023-03-21T13:59:12;94273.22;;;14.78;39.16
42247;BME280;27913;42.722;23.268;2023-03-21T14:01:39;94418.59;;;15.76;39.59
42247;BME280;27913;42.722;23.268;2023-03-21T14:04:13;94510.91;;;16.44;39.65
42247;BME280;27913;42.722;23.268;2023-03-21T14:09:08;94530.34;;;16.21;40.47
42247;BME280;27913;42.722;23.268;2023-03-21T14:11:39;94425.84;;;15.68;40.57
42247;BME280;27913;42.722;23.268;2023-03-21T14:14:05;94421.03;;;15.65;40.43
42247;BME280;27913;42.722;23.268;2023-03-21T14:16:31;94518.81;;;16.27;40.83
42247;BME280;27913;42.722;23.268;2023-03-21T14:19:04;94516.06;;;16.22;41.06
42247;BME280;27913;42.722;23.268;2023-03-21T14:21:33;94351.97;;;15.19;40.67
42247;BME280;27913;42.722;23.268;2023-03-21T14:24:06;94460.59;;;15.96;40.98
42247;BME280;27913;42.722;23.268;2023-03-21T14:26:35;94527.22;;;16.24;41.23
42247;BME280;27913;42.722;23.268;2023-03-21T14:29:03;94511.69;;;16.03;41.61